createdAt,value
2023-03-01T00:00:36.746Z,25.25
2023-03-01T00:01:39.168Z,24.77
2023-03-01T00:02:41.569Z,24.70
2023-03-01T00:03:44.363Z,23.67
2023-03-01T00:04:47.387Z,23.73
2023-03-01T00:05:49.842Z,23.80
2023-03-01T00:06:52.229Z,24.95
2023-03-01T00:07:55.192Z,24.53
2023-03-01T00:08:57.890Z,23.70
2023-03-01T00:10:00.266Z,23.73
2023-03-01T00:11:18.014Z,23.77
2023-03-01T00:12:20.742Z,23.47
2023-03-01T00:13:23.122Z,23.43
2023-03-01T00:14:25.528Z,23.83
2023-03-01T00:15:27.894Z,23.38
2023-03-01T00:16:34.700Z,23.47
2023-03-01T00:17:37.116Z,24.35
2023-03-01T00:18:39.985Z,26.08
2023-03-01T00:19:42.397Z,26.05
2023-03-01T00:20:53.764Z,26.97
2023-03-01T00:21:56.157Z,25.60
2023-03-01T00:22:58.504Z,25.40
2023-03-01T00:24:01.028Z,24.42
2023-03-01T00:25:04.412Z,24.63
2023-03-01T00:26:09.025Z,23.95
2023-03-01T00:27:11.484Z,23.63
2023-03-01T00:28:13.899Z,23.35
2023-03-01T00:29:16.360Z,23.27
2023-03-01T00:30:18.937Z,23.55
2023-03-01T00:31:24.110Z,23.18
2023-03-01T00:32:26.861Z,22.48
2023-03-01T00:33:29.250Z,23.70
2023-03-01T00:34:31.634Z,24.30
2023-03-01T00:35:35.073Z,23.70
2023-03-01T00:36:38.663Z,23.25
2023-03-01T00:37:42.455Z,23.57
2023-03-01T00:38:46.542Z,24.28
2023-03-01T00:39:49.234Z,23.55
2023-03-01T00:40:51.627Z,23.22
2023-03-01T00:41:54.010Z,23.62
2023-03-01T00:42:56.425Z,23.52
2023-03-01T00:43:58.950Z,24.22
2023-03-01T00:45:01.296Z,24.42
2023-03-01T00:46:15.125Z,24.03
2023-03-01T00:47:17.528Z,24.73
2023-03-01T00:48:19.918Z,24.57
2023-03-01T00:49:22.441Z,25.50
2023-03-01T00:50:24.909Z,24.88
2023-03-01T00:51:28.434Z,24.22
2023-03-01T00:52:30.785Z,24.25
2023-03-01T00:53:33.611Z,24.47
2023-03-01T00:54:35.926Z,24.35
2023-03-01T00:55:38.279Z,24.80
2023-03-01T00:56:40.621Z,24.67
2023-03-01T00:57:42.944Z,24.80
2023-03-01T00:58:45.342Z,25.08
2023-03-01T00:59:47.695Z,24.65
2023-03-01T01:00:50.061Z,25.18
2023-03-01T01:01:52.473Z,25.03
2023-03-01T01:02:55.035Z,25.10
2023-03-01T01:03:58.412Z,24.78
2023-03-01T01:05:01.012Z,25.53
2023-03-01T01:06:10.386Z,25.17
2023-03-01T01:07:12.848Z,25.55
2023-03-01T01:08:15.162Z,25.25
2023-03-01T01:09:18.578Z,25.35
2023-03-01T01:10:20.992Z,24.77
2023-03-01T01:11:27.832Z,24.63
2023-03-01T01:12:30.507Z,24.98
2023-03-01T01:13:32.877Z,25.53
2023-03-01T01:14:35.605Z,25.08
2023-03-01T01:15:38.056Z,25.57
2023-03-01T01:16:40.460Z,25.77
2023-03-01T01:17:42.946Z,25.83
2023-03-01T01:18:46.398Z,26.38
2023-03-01T01:19:49.047Z,26.63
2023-03-01T01:20:51.413Z,26.43
2023-03-01T01:21:53.740Z,26.47
2023-03-01T01:22:56.570Z,26.47
2023-03-01T01:23:59.391Z,26.52
2023-03-01T01:25:01.799Z,26.90
2023-03-01T01:26:11.171Z,26.70
2023-03-01T01:27:13.513Z,27.43
2023-03-01T01:28:15.922Z,27.12
2023-03-01T01:29:18.281Z,26.97
2023-03-01T01:30:20.643Z,27.35
2023-03-01T01:31:24.823Z,27.73
2023-03-01T01:32:27.536Z,27.62
2023-03-01T01:33:30.011Z,27.08
2023-03-01T01:34:32.376Z,28.12
2023-03-01T01:35:34.759Z,27.63
2023-03-01T01:36:37.219Z,28.08
2023-03-01T01:37:39.595Z,28.07
2023-03-01T01:38:43.361Z,28.20
2023-03-01T01:39:45.720Z,28.47
2023-03-01T01:40:49.006Z,28.43
2023-03-01T01:41:51.326Z,29.10
2023-03-01T01:42:53.696Z,28.50
2023-03-01T01:44:14.099Z,28.40
2023-03-01T01:45:35.965Z,28.22
2023-03-01T01:46:41.906Z,28.55
2023-03-01T01:47:44.395Z,27.85
2023-03-01T01:48:51.141Z,29.00
2023-03-01T01:49:56.334Z,28.77
2023-03-01T01:51:02.373Z,28.68
2023-03-01T01:52:10.476Z,29.07
2023-03-01T01:53:19.317Z,29.07
2023-03-01T01:54:27.601Z,29.68
2023-03-01T01:55:30.644Z,27.92
2023-03-01T01:56:33.787Z,29.40
2023-03-01T01:57:43.176Z,30.05
2023-03-01T01:58:46.414Z,30.12
2023-03-01T02:00:00.168Z,29.65
2023-03-01T02:01:03.888Z,28.55
2023-03-01T02:02:06.660Z,28.63
2023-03-01T02:03:12.171Z,29.18
2023-03-01T02:04:14.847Z,27.60
2023-03-01T02:05:23.729Z,29.08
2023-03-01T02:06:31.155Z,29.03
2023-03-01T02:07:34.102Z,29.65
2023-03-01T02:08:40.234Z,29.82
2023-03-01T02:09:47.437Z,29.17
2023-03-01T02:10:50.871Z,28.87
2023-03-01T02:11:53.323Z,29.60
2023-03-01T02:12:57.175Z,29.65
2023-03-01T02:13:59.850Z,28.97
2023-03-01T02:15:02.279Z,28.97
2023-03-01T02:16:06.711Z,28.95
2023-03-01T02:17:09.700Z,30.32
2023-03-01T02:18:14.540Z,30.08
2023-03-01T02:19:31.938Z,30.45
2023-03-01T02:20:50.244Z,29.38
2023-03-01T02:22:28.149Z,29.32
2023-03-01T02:23:31.075Z,30.30
2023-03-01T02:24:46.125Z,30.45
2023-03-01T02:25:55.485Z,30.27
2023-03-01T02:26:59.032Z,29.92
2023-03-01T02:28:19.309Z,30.05
2023-03-01T02:29:23.438Z,30.63
2023-03-01T02:30:26.607Z,30.17
2023-03-01T02:31:44.209Z,29.72
2023-03-01T02:32:47.171Z,30.18
2023-03-01T02:33:49.785Z,29.92
2023-03-01T02:34:56.745Z,29.30
2023-03-01T02:36:01.925Z,29.98
2023-03-01T02:37:09.430Z,29.87
2023-03-01T02:38:11.813Z,31.03
2023-03-01T02:39:18.268Z,30.70
2023-03-01T02:40:22.663Z,30.95
2023-03-01T02:41:27.730Z,32.35
2023-03-01T02:42:38.204Z,31.50
2023-03-01T02:43:40.720Z,31.52
2023-03-01T02:44:43.186Z,31.33
2023-03-01T02:45:53.795Z,31.83
2023-03-01T02:46:58.031Z,31.27
2023-03-01T02:48:00.426Z,30.83
2023-03-01T02:49:02.789Z,30.95
2023-03-01T02:50:23.810Z,31.25
2023-03-01T02:51:40.722Z,31.07
2023-03-01T02:53:12.173Z,30.32
2023-03-01T02:54:34.746Z,31.00
2023-03-01T02:55:37.144Z,30.52
2023-03-01T02:56:39.622Z,31.30
2023-03-01T02:57:44.934Z,32.67
2023-03-01T02:58:51.957Z,32.07
2023-03-01T02:59:56.183Z,30.12
2023-03-01T03:00:58.789Z,30.10
2023-03-01T03:02:01.933Z,29.80
2023-03-01T03:03:04.491Z,31.30
2023-03-01T03:04:10.866Z,30.58
2023-03-01T03:05:19.713Z,29.77
2023-03-01T03:06:22.163Z,29.75
2023-03-01T03:07:24.534Z,29.35
2023-03-01T03:08:26.920Z,30.28
2023-03-01T03:09:29.521Z,32.58
2023-03-01T03:10:34.897Z,32.33
2023-03-01T03:11:37.960Z,32.60
2023-03-01T03:12:40.909Z,31.98
2023-03-01T03:13:49.152Z,31.50
2023-03-01T03:14:51.614Z,30.57
2023-03-01T03:15:54.023Z,30.45
2023-03-01T03:16:56.508Z,30.13
2023-03-01T03:18:00.051Z,30.07
2023-03-01T03:19:06.154Z,30.02
2023-03-01T03:20:12.865Z,29.90
2023-03-01T03:21:16.284Z,29.90
2023-03-01T03:22:18.652Z,29.58
2023-03-01T03:23:22.407Z,30.32
2023-03-01T03:24:24.803Z,30.63
2023-03-01T03:25:29.358Z,30.22
2023-03-01T03:26:32.525Z,29.08
2023-03-01T03:27:35.065Z,29.58
2023-03-01T03:28:40.959Z,29.73
2023-03-01T03:29:43.330Z,30.00
2023-03-01T03:30:46.035Z,30.65
2023-03-01T03:31:48.462Z,29.70
2023-03-01T03:32:53.811Z,29.17
2023-03-01T03:33:57.094Z,28.88
2023-03-01T03:34:59.483Z,28.78
2023-03-01T03:36:01.995Z,29.40
2023-03-01T03:37:04.412Z,30.48
2023-03-01T03:38:16.453Z,30.10
2023-03-01T03:39:20.652Z,30.60
2023-03-01T03:40:23.055Z,30.75
2023-03-01T03:41:25.429Z,31.48
2023-03-01T03:42:27.770Z,32.02
2023-03-01T03:43:32.075Z,29.98
2023-03-01T03:44:34.454Z,29.88
2023-03-01T03:45:37.465Z,30.32
2023-03-01T03:46:39.828Z,30.33
2023-03-01T03:47:43.131Z,30.27
2023-03-01T03:48:46.775Z,30.92
2023-03-01T03:49:49.125Z,30.02
2023-03-01T03:50:53.997Z,29.80
2023-03-01T03:51:56.349Z,30.27
2023-03-01T03:52:58.740Z,30.92
2023-03-01T03:54:01.184Z,31.98
2023-03-01T03:55:04.481Z,34.33
2023-03-01T03:56:07.436Z,40.35
2023-03-01T03:57:09.828Z,37.17
2023-03-01T03:58:12.213Z,35.18
2023-03-01T03:59:14.678Z,35.60
2023-03-01T04:00:17.466Z,33.83
2023-03-01T04:01:20.097Z,33.42
2023-03-01T04:02:25.502Z,32.07
2023-03-01T04:03:29.031Z,32.58
2023-03-01T04:04:31.441Z,35.40
2023-03-01T04:05:34.174Z,35.10
2023-03-01T04:06:36.571Z,34.37
2023-03-01T04:07:39.461Z,33.93
2023-03-01T04:08:41.933Z,35.42
2023-03-01T04:09:44.884Z,35.08
2023-03-01T04:10:49.018Z,36.07
2023-03-01T04:11:51.376Z,39.05
2023-03-01T04:12:53.744Z,37.77
2023-03-01T04:13:58.859Z,38.82
2023-03-01T04:15:13.703Z,39.63
2023-03-01T04:16:16.739Z,36.95
2023-03-01T04:17:20.124Z,36.03
2023-03-01T04:18:24.288Z,33.87
2023-03-01T04:19:28.093Z,34.30
2023-03-01T04:20:34.600Z,33.67
2023-03-01T04:21:37.304Z,35.93
2023-03-01T04:22:40.583Z,36.10
2023-03-01T04:23:43.872Z,38.13
2023-03-01T04:24:46.278Z,39.62
2023-03-01T04:25:59.517Z,39.77
2023-03-01T04:27:02.384Z,41.65
2023-03-01T04:28:04.887Z,40.58
2023-03-01T04:29:07.255Z,38.90
2023-03-01T04:30:10.545Z,40.48
2023-03-01T04:31:19.464Z,42.40
2023-03-01T04:32:21.872Z,39.73
2023-03-01T04:33:25.074Z,37.00
2023-03-01T04:34:30.252Z,36.07
2023-03-01T04:35:33.107Z,36.97
2023-03-01T04:36:36.869Z,36.37
2023-03-01T04:37:39.633Z,34.68
2023-03-01T04:38:42.963Z,33.47
2023-03-01T04:39:48.418Z,34.10
2023-03-01T04:40:50.794Z,33.60
2023-03-01T04:41:53.693Z,33.18
2023-03-01T04:42:56.136Z,32.97
2023-03-01T04:44:01.153Z,34.50
2023-03-01T04:45:03.734Z,33.15
2023-03-01T04:46:10.246Z,34.37
2023-03-01T04:47:13.736Z,34.00
2023-03-01T04:48:16.165Z,33.55
2023-03-01T04:49:18.631Z,33.90
2023-03-01T04:50:22.752Z,34.65
2023-03-01T04:51:25.236Z,32.27
2023-03-01T04:52:27.581Z,32.82
2023-03-01T04:53:30.503Z,32.17
2023-03-01T04:54:33.785Z,30.62
2023-03-01T04:55:36.148Z,31.02
2023-03-01T04:56:38.540Z,31.62
2023-03-01T04:57:41.284Z,31.42
2023-03-01T04:58:44.052Z,30.52
2023-03-01T04:59:46.420Z,32.83
2023-03-01T05:00:48.789Z,32.08
2023-03-01T05:01:58.060Z,32.12
2023-03-01T05:03:01.803Z,31.20
2023-03-01T05:04:06.344Z,30.78
2023-03-01T05:05:08.758Z,30.67
2023-03-01T05:06:11.911Z,30.52
2023-03-01T05:07:20.423Z,31.58
2023-03-01T05:08:22.865Z,33.35
2023-03-01T05:09:25.225Z,34.23
2023-03-01T05:10:32.891Z,34.58
2023-03-01T05:11:36.950Z,36.43
2023-03-01T05:12:39.341Z,43.82
2023-03-01T05:13:41.745Z,49.23
2023-03-01T05:14:44.140Z,37.98
2023-03-01T05:15:46.511Z,34.40
2023-03-01T05:16:48.891Z,33.23
2023-03-01T05:17:51.332Z,35.57
2023-03-01T05:18:53.681Z,40.07
2023-03-01T05:19:56.698Z,33.50
2023-03-01T05:21:07.978Z,30.50
2023-03-01T05:22:10.425Z,29.38
2023-03-01T05:23:12.969Z,29.77
2023-03-01T05:24:15.401Z,30.00
2023-03-01T05:25:17.986Z,29.77
2023-03-01T05:26:28.273Z,30.22
2023-03-01T05:27:31.300Z,29.80
2023-03-01T05:28:33.754Z,28.70
2023-03-01T05:29:36.109Z,29.07
2023-03-01T05:30:40.174Z,29.27
2023-03-01T05:31:42.488Z,29.78
2023-03-01T05:32:47.469Z,28.40
2023-03-01T05:34:31.138Z,28.67
2023-03-01T05:35:34.017Z,29.70
2023-03-01T05:36:36.437Z,29.08
2023-03-01T05:37:38.802Z,28.42
2023-03-01T05:38:41.180Z,28.47
2023-03-01T05:39:43.545Z,27.50
2023-03-01T05:40:48.564Z,28.37
2023-03-01T05:41:58.971Z,28.42
2023-03-01T05:43:01.524Z,28.28
2023-03-01T05:44:05.898Z,27.77
2023-03-01T05:45:10.646Z,27.25
2023-03-01T05:46:14.494Z,26.42
2023-03-01T05:47:16.926Z,26.78
2023-03-01T05:48:20.665Z,27.18
2023-03-01T05:49:26.973Z,26.42
2023-03-01T05:50:31.109Z,27.27
2023-03-01T05:51:34.991Z,27.23
2023-03-01T05:52:37.353Z,25.90
2023-03-01T05:53:39.736Z,26.17
2023-03-01T05:54:42.088Z,26.58
2023-03-01T05:55:45.294Z,26.88
2023-03-01T05:56:48.037Z,27.50
2023-03-01T05:57:51.146Z,27.00
2023-03-01T05:58:53.511Z,27.05
2023-03-01T05:59:55.968Z,26.15
2023-03-01T06:00:58.851Z,26.40
2023-03-01T06:02:01.296Z,25.37
2023-03-01T06:03:04.322Z,26.27
2023-03-01T06:04:06.745Z,26.23
2023-03-01T06:05:10.934Z,25.28
2023-03-01T06:06:13.383Z,25.62
2023-03-01T06:07:15.780Z,25.45
2023-03-01T06:08:18.186Z,25.07
2023-03-01T06:09:23.556Z,24.43
2023-03-01T06:10:25.898Z,24.88
2023-03-01T06:11:30.399Z,24.83
2023-03-01T06:12:37.685Z,25.22
2023-03-01T06:13:40.043Z,24.22
2023-03-01T06:14:42.412Z,24.85
2023-03-01T06:15:44.802Z,23.52
2023-03-01T06:16:47.189Z,23.42
2023-03-01T06:17:50.233Z,24.08
2023-03-01T06:18:52.588Z,23.92
2023-03-01T06:19:54.959Z,24.15
2023-03-01T06:20:57.476Z,24.02
2023-03-01T06:21:59.881Z,23.50
2023-03-01T06:23:02.371Z,23.55
2023-03-01T06:24:07.052Z,23.48
2023-03-01T06:25:10.035Z,22.87
2023-03-01T06:26:12.385Z,23.85
2023-03-01T06:27:14.749Z,23.77
2023-03-01T06:28:17.321Z,23.15
2023-03-01T06:29:19.696Z,22.97
2023-03-01T06:30:23.438Z,23.27
2023-03-01T06:31:25.851Z,23.35
2023-03-01T06:32:28.260Z,24.13
2023-03-01T06:33:30.628Z,23.75
2023-03-01T06:34:33.266Z,23.78
2023-03-01T06:35:35.834Z,23.97
2023-03-01T06:36:38.238Z,23.88
2023-03-01T06:37:41.535Z,23.20
2023-03-01T06:38:44.281Z,24.13
2023-03-01T06:39:46.617Z,25.52
2023-03-01T06:40:56.203Z,26.13
2023-03-01T06:41:59.492Z,25.00
2023-03-01T06:43:02.206Z,24.07
2023-03-01T06:44:04.875Z,22.95
2023-03-01T06:45:08.423Z,22.87
2023-03-01T06:46:10.833Z,22.67
2023-03-01T06:47:13.256Z,22.05
2023-03-01T06:48:15.927Z,21.95
2023-03-01T06:49:18.911Z,21.65
2023-03-01T06:50:21.293Z,21.50
2023-03-01T06:51:23.685Z,21.10
2023-03-01T06:52:26.794Z,20.92
2023-03-01T06:53:30.260Z,21.55
2023-03-01T06:54:32.620Z,21.55
2023-03-01T06:55:35.043Z,20.47
2023-03-01T06:56:37.467Z,20.70
2023-03-01T06:57:40.897Z,20.55
2023-03-01T06:58:43.274Z,20.75
2023-03-01T06:59:45.733Z,21.23
2023-03-01T07:00:48.107Z,21.77
2023-03-01T07:01:50.446Z,21.12
2023-03-01T07:02:53.030Z,20.68
2023-03-01T07:03:55.465Z,20.75
2023-03-01T07:04:57.882Z,20.93
2023-03-01T07:06:00.377Z,20.60
2023-03-01T07:07:02.743Z,20.98
2023-03-01T07:08:05.244Z,20.65
2023-03-01T07:09:07.630Z,20.67
2023-03-01T07:10:11.078Z,20.55
2023-03-01T07:11:13.567Z,20.77
2023-03-01T07:12:16.370Z,20.68
2023-03-01T07:13:18.750Z,21.22
2023-03-01T07:14:21.120Z,21.27
2023-03-01T07:15:23.600Z,20.57
2023-03-01T07:16:26.016Z,20.97
2023-03-01T07:17:28.500Z,21.77
2023-03-01T07:18:30.877Z,21.22
2023-03-01T07:19:33.260Z,22.68
2023-03-01T07:20:35.971Z,21.40
2023-03-01T07:21:41.730Z,21.38
2023-03-01T07:22:44.365Z,21.08
2023-03-01T07:23:48.962Z,20.98
2023-03-01T07:24:51.346Z,20.57
2023-03-01T07:25:56.590Z,21.23
2023-03-01T07:27:01.900Z,20.65
2023-03-01T07:28:04.457Z,21.30
2023-03-01T07:29:08.793Z,21.05
2023-03-01T07:30:11.621Z,21.10
2023-03-01T07:31:14.180Z,20.85
2023-03-01T07:32:16.633Z,20.62
2023-03-01T07:33:19.122Z,20.38
2023-03-01T07:34:21.551Z,21.15
2023-03-01T07:35:26.050Z,21.22
2023-03-01T07:36:28.920Z,21.00
2023-03-01T07:37:31.378Z,22.82
2023-03-01T07:38:33.972Z,24.03
2023-03-01T07:39:36.340Z,22.42
2023-03-01T07:40:38.830Z,21.10
2023-03-01T07:41:41.248Z,21.17
2023-03-01T07:42:43.645Z,20.55
2023-03-01T07:43:46.014Z,21.40
2023-03-01T07:44:48.391Z,21.50
2023-03-01T07:45:53.167Z,21.43
2023-03-01T07:46:57.432Z,20.88
2023-03-01T07:47:59.817Z,20.97
2023-03-01T07:49:02.278Z,21.22
2023-03-01T07:50:05.089Z,21.47
2023-03-01T07:51:08.578Z,21.58
2023-03-01T07:52:13.076Z,21.58
2023-03-01T07:53:15.445Z,19.75
2023-03-01T07:54:17.828Z,21.12
2023-03-01T07:55:21.110Z,20.35
2023-03-01T07:56:23.624Z,20.40
2023-03-01T07:57:26.228Z,21.20
2023-03-01T07:58:28.608Z,21.88
2023-03-01T07:59:31.049Z,21.83
2023-03-01T08:00:33.507Z,20.35
2023-03-01T08:01:35.924Z,21.17
2023-03-01T08:02:38.350Z,21.55
2023-03-01T08:03:40.969Z,21.48
2023-03-01T08:04:43.924Z,20.97
2023-03-01T08:05:46.319Z,21.08
2023-03-01T08:06:48.704Z,21.37
2023-03-01T08:07:51.253Z,21.55
2023-03-01T08:08:56.397Z,21.83
2023-03-01T08:09:58.924Z,20.68
2023-03-01T08:11:03.248Z,21.28
2023-03-01T08:12:06.763Z,21.33
2023-03-01T08:13:09.160Z,21.17
2023-03-01T08:14:14.358Z,21.33
2023-03-01T08:15:16.759Z,21.63
2023-03-01T08:16:19.157Z,21.40
2023-03-01T08:17:22.305Z,20.50
2023-03-01T08:18:26.450Z,20.98
2023-03-01T08:19:29.285Z,21.55
2023-03-01T08:20:31.900Z,21.53
2023-03-01T08:21:35.848Z,21.35
2023-03-01T08:22:38.279Z,21.02
2023-03-01T08:23:41.277Z,22.13
2023-03-01T08:24:43.794Z,22.08
2023-03-01T08:25:46.176Z,21.27
2023-03-01T08:26:48.638Z,20.70
2023-03-01T08:27:51.139Z,20.35
2023-03-01T08:28:53.635Z,20.72
2023-03-01T08:29:56.007Z,21.10
2023-03-01T08:30:58.355Z,21.15
2023-03-01T08:32:00.988Z,20.85
2023-03-01T08:33:03.521Z,20.37
2023-03-01T08:34:09.276Z,19.97
2023-03-01T08:35:11.737Z,20.93
2023-03-01T08:36:14.070Z,20.97
2023-03-01T08:37:16.409Z,20.42
2023-03-01T08:38:18.891Z,20.43
2023-03-01T08:39:21.982Z,20.08
2023-03-01T08:40:24.401Z,21.52
2023-03-01T08:41:27.293Z,21.33
2023-03-01T08:42:29.634Z,20.85
2023-03-01T08:43:32.090Z,21.00
2023-03-01T08:44:36.097Z,20.75
2023-03-01T08:45:38.579Z,21.27
2023-03-01T08:46:42.312Z,21.45
2023-03-01T08:47:46.161Z,21.13
2023-03-01T08:48:49.681Z,20.77
2023-03-01T08:49:52.179Z,21.02
2023-03-01T08:50:54.578Z,21.23
2023-03-01T08:51:57.061Z,20.95
2023-03-01T08:52:59.472Z,20.55
2023-03-01T08:54:04.811Z,20.57
2023-03-01T08:55:08.001Z,20.30
2023-03-01T08:56:10.459Z,20.68
2023-03-01T08:57:13.800Z,20.37
2023-03-01T08:58:16.210Z,20.23
2023-03-01T08:59:19.825Z,20.90
2023-03-01T09:00:22.849Z,20.77
2023-03-01T09:01:25.504Z,20.05
2023-03-01T09:02:27.996Z,19.33
2023-03-01T09:03:30.408Z,19.87
2023-03-01T09:04:33.030Z,19.52
2023-03-01T09:05:37.208Z,20.08
2023-03-01T09:06:39.608Z,19.45
2023-03-01T09:07:41.979Z,18.88
2023-03-01T09:08:46.813Z,19.17
2023-03-01T09:09:49.184Z,20.12
2023-03-01T09:10:51.728Z,18.93
2023-03-01T09:11:54.134Z,19.68
2023-03-01T09:12:56.506Z,21.72
2023-03-01T09:13:58.890Z,20.55
2023-03-01T09:15:01.274Z,17.80
2023-03-01T09:16:05.859Z,18.23
2023-03-01T09:17:08.297Z,22.48
2023-03-01T09:18:10.767Z,21.12
2023-03-01T09:19:13.290Z,20.27
2023-03-01T09:20:15.650Z,17.95
2023-03-01T09:21:25.006Z,18.38
2023-03-01T09:22:30.050Z,17.98
2023-03-01T09:23:32.416Z,19.13
2023-03-01T09:24:34.771Z,19.17
2023-03-01T09:25:37.091Z,18.50
2023-03-01T09:26:39.500Z,17.23
2023-03-01T09:27:41.887Z,17.72
2023-03-01T09:28:45.571Z,17.82
2023-03-01T09:29:47.931Z,18.15
2023-03-01T09:30:50.292Z,18.43
2023-03-01T09:31:56.146Z,18.28
2023-03-01T09:32:58.588Z,18.23
2023-03-01T09:34:00.961Z,18.35
2023-03-01T09:35:06.218Z,17.80
2023-03-01T09:36:14.551Z,17.87
2023-03-01T09:37:17.014Z,17.67
2023-03-01T09:38:19.439Z,16.85
2023-03-01T09:39:21.842Z,17.30
2023-03-01T09:40:25.511Z,18.60
2023-03-01T09:41:36.701Z,17.83
2023-03-01T09:42:48.283Z,17.85
2023-03-01T09:44:01.490Z,17.25
2023-03-01T09:45:13.222Z,18.52
2023-03-01T09:46:20.047Z,16.68
2023-03-01T09:47:29.527Z,17.25
2023-03-01T09:48:58.822Z,17.43
2023-03-01T09:50:08.486Z,18.50
2023-03-01T09:51:20.603Z,18.02
2023-03-01T09:52:39.910Z,17.98
2023-03-01T09:53:42.674Z,17.00
2023-03-01T09:54:45.064Z,16.30
2023-03-01T09:55:52.291Z,16.87
2023-03-01T09:57:05.089Z,16.75
2023-03-01T09:58:36.306Z,16.53
2023-03-01T09:59:57.394Z,16.92
2023-03-01T10:01:11.841Z,16.22
2023-03-01T10:02:42.388Z,15.85
2023-03-01T10:03:50.337Z,16.65
2023-03-01T10:04:56.931Z,16.55
2023-03-01T10:06:34.370Z,16.68
2023-03-01T10:08:03.999Z,15.50
2023-03-01T10:09:15.244Z,15.45
2023-03-01T10:10:28.492Z,15.85
2023-03-01T10:11:38.856Z,15.62
2023-03-01T10:12:43.643Z,16.20
2023-03-01T10:13:55.484Z,16.25
2023-03-01T10:15:16.617Z,15.95
2023-03-01T10:16:26.382Z,15.63
2023-03-01T10:17:35.970Z,16.42
2023-03-01T10:18:41.620Z,15.72
2023-03-01T10:19:47.980Z,16.47
2023-03-01T10:21:01.997Z,16.37
2023-03-01T10:22:30.778Z,15.47
2023-03-01T10:23:35.865Z,15.72
2023-03-01T10:24:38.352Z,14.97
2023-03-01T10:25:46.117Z,14.45
2023-03-01T10:26:53.203Z,15.27
2023-03-01T10:28:03.002Z,14.90
2023-03-01T10:29:11.417Z,14.77
2023-03-01T10:30:34.050Z,15.57
2023-03-01T10:31:42.140Z,17.87
2023-03-01T10:32:45.684Z,30.42
2023-03-01T10:33:52.596Z,21.08
2023-03-01T10:34:55.058Z,15.92
2023-03-01T10:35:58.233Z,16.17
2023-03-01T10:37:09.452Z,16.15
2023-03-01T10:38:14.652Z,14.68
2023-03-01T10:39:22.920Z,14.33
2023-03-01T10:40:25.699Z,13.98
2023-03-01T10:41:31.336Z,13.97
2023-03-01T10:45:46.593Z,14.38
2023-03-01T10:47:06.182Z,14.05
2023-03-01T10:48:27.490Z,12.52
2023-03-01T10:49:29.909Z,13.88
2023-03-01T10:50:32.990Z,13.98
2023-03-01T10:51:35.483Z,14.15
2023-03-01T10:52:41.857Z,13.68
2023-03-01T10:53:49.948Z,14.13
2023-03-01T10:55:17.409Z,14.52
2023-03-01T10:56:19.957Z,17.83
2023-03-01T10:57:44.397Z,19.60
2023-03-01T10:59:05.105Z,18.08
2023-03-01T11:00:26.221Z,16.62
2023-03-01T11:01:33.290Z,16.93
2023-03-01T11:02:37.857Z,15.08
2023-03-01T11:03:40.595Z,14.33
2023-03-01T11:05:13.626Z,14.83
2023-03-01T11:06:23.251Z,13.88
2023-03-01T11:07:25.791Z,14.35
2023-03-01T11:08:51.727Z,14.73
2023-03-01T11:09:54.244Z,13.70
2023-03-01T11:11:06.593Z,13.73
2023-03-01T11:12:16.520Z,13.98
2023-03-01T11:13:20.563Z,14.45
2023-03-01T11:14:28.697Z,13.73
2023-03-01T11:15:31.480Z,13.37
2023-03-01T11:16:37.198Z,13.33
2023-03-01T11:17:53.779Z,13.82
2023-03-01T11:19:11.688Z,12.68
2023-03-01T11:20:14.115Z,13.55
2023-03-01T11:21:17.622Z,12.72
2023-03-01T11:22:22.873Z,12.88
2023-03-01T11:23:26.940Z,13.58
2023-03-01T11:25:07.389Z,13.50
2023-03-01T11:26:14.352Z,13.12
2023-03-01T11:27:27.345Z,12.97
2023-03-01T11:28:30.868Z,13.07
2023-03-01T11:29:47.896Z,13.30
2023-03-01T11:31:08.371Z,13.45
2023-03-01T11:32:15.008Z,13.67
2023-03-01T11:33:17.439Z,12.62
2023-03-01T11:34:37.510Z,12.30
2023-03-01T11:35:45.607Z,12.28
2023-03-01T11:36:58.274Z,12.12
2023-03-01T11:38:21.224Z,12.02
2023-03-01T11:39:28.904Z,12.08
2023-03-01T11:40:37.372Z,12.05
2023-03-01T11:41:42.670Z,11.65
2023-03-01T11:42:57.704Z,10.87
2023-03-01T11:44:26.999Z,11.62
2023-03-01T11:45:51.806Z,10.80
2023-03-01T11:47:03.781Z,10.60
2023-03-01T11:48:47.100Z,11.48
2023-03-01T11:49:58.177Z,11.67
2023-03-01T11:51:07.238Z,12.55
2023-03-01T11:52:43.458Z,12.78
2023-03-01T11:53:45.772Z,11.42
2023-03-01T11:55:19.016Z,11.00
2023-03-01T11:56:43.125Z,10.45
2023-03-01T11:58:22.733Z,10.55
2023-03-01T11:59:50.993Z,10.53
2023-03-01T12:01:26.777Z,10.35
2023-03-01T12:03:14.260Z,10.60
2023-03-01T12:04:55.157Z,9.93
2023-03-01T12:06:17.294Z,10.38
2023-03-01T12:07:40.000Z,10.65
2023-03-01T12:08:44.005Z,10.07
2023-03-01T12:10:11.309Z,9.73
2023-03-01T12:11:35.130Z,9.68
2023-03-01T12:13:18.433Z,9.12
2023-03-01T12:14:23.560Z,10.48
2023-03-01T12:15:40.704Z,10.68
2023-03-01T12:17:37.261Z,10.63
2023-03-01T12:19:27.732Z,10.62
2023-03-01T12:20:44.943Z,10.78
2023-03-01T12:22:03.199Z,11.67
2023-03-01T12:23:28.262Z,10.33
2023-03-01T12:24:52.404Z,10.72
2023-03-01T12:26:03.515Z,10.97
2023-03-01T12:27:05.816Z,10.95
2023-03-01T12:28:26.599Z,10.22
2023-03-01T12:29:31.995Z,10.30
2023-03-01T12:30:59.597Z,10.67
2023-03-01T12:32:10.762Z,10.60
2023-03-01T12:33:31.450Z,11.27
2023-03-01T12:34:44.556Z,11.28
2023-03-01T12:36:02.259Z,10.30
2023-03-01T12:37:26.417Z,10.47
2023-03-01T12:38:43.793Z,10.50
2023-03-01T12:40:24.843Z,10.23
2023-03-01T12:41:42.422Z,10.35
2023-03-01T12:42:48.489Z,10.87
2023-03-01T12:44:19.959Z,10.25
2023-03-01T12:46:10.347Z,9.68
2023-03-01T12:47:50.112Z,9.85
2023-03-01T12:49:02.128Z,9.23
2023-03-01T12:50:19.414Z,10.17
2023-03-01T12:51:28.300Z,10.30
2023-03-01T12:52:54.514Z,10.07
2023-03-01T12:53:58.745Z,9.92
2023-03-01T12:55:05.276Z,10.35
2023-03-01T12:56:13.017Z,9.88
2023-03-01T12:57:41.712Z,9.68
2023-03-01T12:58:58.903Z,9.62
2023-03-01T13:01:39.454Z,9.17
2023-03-01T13:03:33.394Z,8.93
2023-03-01T13:04:42.423Z,8.55
2023-03-01T13:06:07.910Z,9.53
2023-03-01T13:07:32.258Z,9.40
2023-03-01T13:08:42.274Z,9.73
2023-03-01T13:10:07.107Z,10.22
2023-03-01T13:11:27.758Z,10.33
2023-03-01T13:12:57.670Z,9.72
2023-03-01T13:14:22.671Z,9.12
2023-03-01T13:15:27.004Z,9.23
2023-03-01T13:16:31.639Z,10.65
2023-03-01T13:17:45.779Z,10.78
2023-03-01T13:18:50.824Z,11.10
2023-03-01T13:20:02.836Z,12.92
2023-03-01T13:21:08.471Z,13.98
2023-03-01T13:22:33.412Z,12.58
2023-03-01T13:23:40.807Z,17.33
2023-03-01T13:24:44.221Z,19.02
2023-03-01T13:26:09.273Z,17.53
2023-03-01T13:27:19.254Z,12.93
2023-03-01T13:28:36.653Z,9.82
2023-03-01T13:29:45.206Z,9.73
2023-03-01T13:30:47.551Z,9.60
2023-03-01T13:32:02.819Z,9.23
2023-03-01T13:33:26.860Z,9.58
2023-03-01T13:34:53.325Z,9.18
2023-03-01T13:35:59.919Z,8.82
2023-03-01T13:37:19.953Z,9.70
2023-03-01T13:38:45.411Z,9.65
2023-03-01T13:39:48.175Z,9.50
2023-03-01T13:40:50.516Z,8.73
2023-03-01T13:41:54.895Z,9.30
2023-03-01T13:43:28.980Z,9.30
2023-03-01T13:44:34.967Z,9.63
2023-03-01T13:45:42.105Z,9.72
2023-03-01T13:46:45.892Z,9.57
2023-03-01T13:47:54.153Z,10.02
2023-03-01T13:48:58.404Z,9.97
2023-03-01T13:50:05.133Z,10.92
2023-03-01T13:51:12.191Z,10.08
2023-03-01T13:52:38.291Z,9.73
2023-03-01T13:53:46.675Z,9.83
2023-03-01T13:54:49.185Z,9.50
2023-03-01T13:56:17.110Z,9.52
2023-03-01T13:57:25.024Z,8.15
2023-03-01T13:58:30.596Z,8.42
2023-03-01T13:59:33.030Z,8.38
2023-03-01T14:00:40.722Z,8.05
2023-03-01T14:01:43.995Z,8.75
2023-03-01T14:02:47.755Z,8.20
2023-03-01T14:03:51.599Z,8.28
2023-03-01T14:04:59.178Z,8.28
2023-03-01T14:06:19.093Z,8.13
2023-03-01T14:07:30.504Z,8.28
2023-03-01T14:08:34.606Z,8.20
2023-03-01T14:09:42.973Z,8.75
2023-03-01T14:10:57.515Z,8.48
2023-03-01T14:12:37.878Z,8.30
2023-03-01T14:14:09.546Z,8.27
2023-03-01T14:15:50.198Z,8.90
2023-03-01T14:17:08.661Z,8.48
2023-03-01T14:18:25.782Z,8.82
2023-03-01T14:19:33.913Z,8.60
2023-03-01T14:20:46.519Z,8.52
2023-03-01T14:21:49.075Z,8.98
2023-03-01T14:22:56.088Z,8.60
2023-03-01T14:24:00.060Z,8.42
2023-03-01T14:25:07.983Z,8.08
2023-03-01T14:26:13.691Z,8.48
2023-03-01T14:27:16.667Z,8.83
2023-03-01T14:28:27.900Z,9.22
2023-03-01T14:29:39.416Z,8.85
2023-03-01T14:30:50.357Z,9.55
2023-03-01T14:31:53.788Z,8.88
2023-03-01T14:33:01.638Z,8.62